XSN02L EDDH-ENBR
Flight info
| Callsign | XSN02L |
|---|---|
| Flight time | N/A |
| Altitude | 30000 |
| Route | ELSOB Y348 OMWEG DCT BADOS DCT GIKOG DCT ATTUS P992 LINVI DCT BADAB |
| Aircraft | B462/M-SDFGIRWY/LB1 |
Departure
| Time | N/A |
|---|---|
| Airport | Hamburg Helmut Schmidt Airport (EDDH) |
Arrival
| Time | 2026-05-06 09:11 |
|---|---|
| Airport | Bergen Airport, Flesland (ENBR) |
| Time | Latitude | Longitude | Altitude | Speed | Heading |
|---|---|---|---|---|---|
| 2026-05-06 08:49 | 59.24863 | 5.91085 | 30030 ft | 424 kts | 333° |
| 2026-05-06 08:49 | 59.27672 | 5.89297 | 30025 ft | 424 kts | 333° |
| 2026-05-06 08:50 | 59.33232 | 5.85763 | 29926 ft | 410 kts | 333° |
| 2026-05-06 08:50 | 59.35907 | 5.84039 | 29640 ft | 400 kts | 333° |
| 2026-05-06 08:50 | 59.38515 | 5.82349 | 29297 ft | 390 kts | 332° |
| 2026-05-06 08:50 | 59.41028 | 5.80729 | 28926 ft | 381 kts | 332° |
| 2026-05-06 08:51 | 59.43519 | 5.79130 | 28533 ft | 373 kts | 332° |
| 2026-05-06 08:51 | 59.45963 | 5.77567 | 28154 ft | 365 kts | 332° |
| 2026-05-06 08:51 | 59.48364 | 5.76023 | 27831 ft | 358 kts | 330° |
| 2026-05-06 08:51 | 59.50716 | 5.74512 | 27446 ft | 352 kts | 330° |
| 2026-05-06 08:52 | 59.52993 | 5.73025 | 27085 ft | 345 kts | 330° |
| 2026-05-06 08:52 | 59.55259 | 5.71534 | 26694 ft | 341 kts | 330° |
| 2026-05-06 08:52 | 59.57489 | 5.70068 | 26327 ft | 335 kts | 330° |
| 2026-05-06 08:52 | 59.59694 | 5.68623 | 25920 ft | 331 kts | 330° |
| 2026-05-06 08:53 | 59.61871 | 5.67200 | 25575 ft | 327 kts | 331° |
| 2026-05-06 08:53 | 59.64178 | 5.66552 | 25169 ft | 348 kts | 353° |
| 2026-05-06 08:53 | 59.66597 | 5.67222 | 24834 ft | 352 kts | 360° |
| 2026-05-06 08:53 | 59.68994 | 5.68114 | 24479 ft | 349 kts | 0° |
| 2026-05-06 08:54 | 59.71336 | 5.69054 | 24132 ft | 346 kts | 1° |
| 2026-05-06 08:54 | 59.73689 | 5.70045 | 23783 ft | 344 kts | 2° |
| 2026-05-06 08:54 | 59.75985 | 5.71556 | 23308 ft | 354 kts | 14° |
| 2026-05-06 08:54 | 59.78262 | 5.73552 | 22752 ft | 359 kts | 15° |
| 2026-05-06 08:55 | 59.80537 | 5.75635 | 22163 ft | 361 kts | 15° |
| 2026-05-06 08:55 | 59.82831 | 5.77752 | 21569 ft | 363 kts | 16° |
| 2026-05-06 08:55 | 59.85120 | 5.79867 | 21015 ft | 364 kts | 16° |
| 2026-05-06 08:55 | 59.87428 | 5.81985 | 20474 ft | 365 kts | 16° |
| 2026-05-06 08:56 | 59.89731 | 5.83852 | 19933 ft | 357 kts | 7° |
| 2026-05-06 08:56 | 59.92123 | 5.84931 | 19366 ft | 349 kts | 1° |
| 2026-05-06 08:56 | 59.94514 | 5.85731 | 18825 ft | 347 kts | 359° |
| 2026-05-06 08:56 | 59.96906 | 5.86286 | 18290 ft | 344 kts | 356° |
| 2026-05-06 08:57 | 59.99293 | 5.86694 | 17684 ft | 342 kts | 356° |
| 2026-05-06 08:57 | 60.01662 | 5.87045 | 17073 ft | 340 kts | 355° |
| 2026-05-06 08:57 | 60.04029 | 5.87363 | 16507 ft | 339 kts | 355° |
| 2026-05-06 08:57 | 60.06353 | 5.87662 | 15980 ft | 338 kts | 355° |
| 2026-05-06 08:58 | 60.08690 | 5.87948 | 15413 ft | 336 kts | 355° |
| 2026-05-06 08:58 | 60.11018 | 5.88194 | 14866 ft | 334 kts | 355° |
| 2026-05-06 08:58 | 60.13323 | 5.88414 | 14393 ft | 329 kts | 355° |
| 2026-05-06 08:58 | 60.15603 | 5.88595 | 13912 ft | 324 kts | 356° |
| 2026-05-06 08:59 | 60.17834 | 5.88767 | 13416 ft | 317 kts | 355° |
| 2026-05-06 08:59 | 60.20019 | 5.88870 | 12950 ft | 311 kts | 355° |
| 2026-05-06 08:59 | 60.22141 | 5.88924 | 12540 ft | 307 kts | 355° |
| 2026-05-06 08:59 | 60.24264 | 5.88975 | 12107 ft | 301 kts | 355° |
| 2026-05-06 09:00 | 60.26330 | 5.88824 | 11675 ft | 291 kts | 344° |
| 2026-05-06 09:00 | 60.28123 | 5.87214 | 11241 ft | 278 kts | 323° |
| 2026-05-06 09:00 | 60.29698 | 5.84991 | 10878 ft | 275 kts | 322° |
| 2026-05-06 09:00 | 60.31264 | 5.82795 | 10487 ft | 273 kts | 322° |
| 2026-05-06 09:01 | 60.32800 | 5.80640 | 10069 ft | 271 kts | 323° |
| 2026-05-06 09:01 | 60.34345 | 5.78471 | 9665 ft | 270 kts | 323° |
| 2026-05-06 09:01 | 60.35900 | 5.76319 | 9219 ft | 270 kts | 323° |
| 2026-05-06 09:01 | 60.37421 | 5.74124 | 8858 ft | 266 kts | 323° |
| 2026-05-06 09:02 | 60.38780 | 5.71744 | 8690 ft | 253 kts | 303° |
| 2026-05-06 09:02 | 60.39580 | 5.68703 | 8600 ft | 240 kts | 294° |
| 2026-05-06 09:02 | 60.40308 | 5.65690 | 8332 ft | 238 kts | 295° |
| 2026-05-06 09:02 | 60.41041 | 5.62706 | 8056 ft | 236 kts | 296° |
| 2026-05-06 09:03 | 60.41783 | 5.59753 | 7806 ft | 234 kts | 296° |
| 2026-05-06 09:03 | 60.42540 | 5.56837 | 7549 ft | 232 kts | 297° |
| 2026-05-06 09:03 | 60.43305 | 5.53964 | 7290 ft | 231 kts | 298° |
| 2026-05-06 09:03 | 60.44079 | 5.51158 | 7049 ft | 230 kts | 298° |
| 2026-05-06 09:04 | 60.44877 | 5.48337 | 6780 ft | 230 kts | 299° |
| 2026-05-06 09:04 | 60.45675 | 5.45535 | 6528 ft | 229 kts | 299° |
| 2026-05-06 09:04 | 60.46474 | 5.42753 | 6271 ft | 228 kts | 300° |
| 2026-05-06 09:04 | 60.47287 | 5.39988 | 5994 ft | 228 kts | 300° |
| 2026-05-06 09:05 | 60.48098 | 5.37230 | 5753 ft | 227 kts | 299° |
| 2026-05-06 09:05 | 60.48901 | 5.34485 | 5483 ft | 226 kts | 299° |
| 2026-05-06 09:05 | 60.49688 | 5.31779 | 5234 ft | 225 kts | 299° |
| 2026-05-06 09:05 | 60.50395 | 5.28968 | 4969 ft | 223 kts | 284° |
| 2026-05-06 09:06 | 60.50303 | 5.25900 | 4749 ft | 220 kts | 248° |
| 2026-05-06 09:06 | 60.49614 | 5.23133 | 4487 ft | 220 kts | 242° |
| 2026-05-06 09:06 | 60.48857 | 5.20446 | 4220 ft | 219 kts | 240° |
| 2026-05-06 09:06 | 60.48071 | 5.17790 | 3979 ft | 219 kts | 239° |
| 2026-05-06 09:07 | 60.47066 | 5.15508 | 3720 ft | 220 kts | 211° |
| 2026-05-06 09:07 | 60.45573 | 5.14905 | 3505 ft | 224 kts | 174° |
| 2026-05-06 09:07 | 60.44052 | 5.15572 | 3283 ft | 223 kts | 169° |
| 2026-05-06 09:07 | 60.42534 | 5.16273 | 3037 ft | 222 kts | 169° |
| 2026-05-06 09:08 | 60.41092 | 5.17002 | 2872 ft | 208 kts | 168° |
| 2026-05-06 09:08 | 60.39765 | 5.17708 | 2685 ft | 188 kts | 168° |
| 2026-05-06 09:08 | 60.38543 | 5.18363 | 2455 ft | 176 kts | 168° |
| 2026-05-06 09:08 | 60.37376 | 5.18970 | 2132 ft | 171 kts | 168° |
| 2026-05-06 09:09 | 60.36245 | 5.19534 | 1799 ft | 160 kts | 169° |
| 2026-05-06 09:09 | 60.35165 | 5.19977 | 1369 ft | 158 kts | 173° |
| 2026-05-06 09:09 | 60.34129 | 5.20236 | 1118 ft | 143 kts | 174° |
| 2026-05-06 09:09 | 60.33206 | 5.20560 | 970 ft | 129 kts | 172° |
| 2026-05-06 09:10 | 60.32316 | 5.20829 | 698 ft | 128 kts | 172° |
| 2026-05-06 09:10 | 60.31449 | 5.21117 | 427 ft | 124 kts | 171° |
| 2026-05-06 09:10 | 60.30627 | 5.21401 | 243 ft | 116 kts | 171° |
| 2026-05-06 09:10 | 60.29886 | 5.21638 | 164 ft | 98 kts | 171° |
| 2026-05-06 09:11 | 60.29290 | 5.21828 | 152 ft | 63 kts | 172° |
| 2026-05-06 09:11 | 60.29013 | 5.21918 | 150 ft | 32 kts | 169° |
| 2026-05-06 09:11 | 60.28916 | 5.22025 | 149 ft | 13 kts | 107° |
| 2026-05-06 09:11 | 60.28921 | 5.22151 | 150 ft | 6 kts | 78° |
| 2026-05-06 09:12 | 60.28930 | 5.22240 | 150 ft | 6 kts | 78° |
| 2026-05-06 09:12 | 60.28938 | 5.22322 | 150 ft | 6 kts | 79° |
| 2026-05-06 09:12 | 60.28955 | 5.22395 | 150 ft | 6 kts | 83° |
| 2026-05-06 09:12 | 60.28945 | 5.22474 | 150 ft | 6 kts | 111° |
| 2026-05-06 09:13 | 60.28942 | 5.22487 | 150 ft | 0 kts | 108° |